Galatas, Greece
Current Conditions -  °F | °C
As of 5:20 PM on Sunday 25 Jan 2015 (Local Time) from LGEL Reporting Station
Scattered Clouds Scattered Clouds  
Wind Chill: 59°   Ceiling: Unl
Heat Index: 59°   Visibility: 6mi
Dew Point: 46°   Wind: 6mph
Humidity: 63%   Direction: 170°S
Pressure: 29.77"   Gusts: NA
Location:  37.5°N, 23.45°E
Report Text: LGEL 251420Z 17005KT 9999 SCT025 15/08 Q1008
Loading
Personal Weather Stations






























Interactive Weather Map New forecast layout! Learn more

10-Day Weather Forecast

Advertisements
Track Severe Weather on mobile